createdAt,value
2023-08-08T00:01:49.533Z,26.71
2023-08-08T00:04:23.265Z,26.69
2023-08-08T00:06:56.969Z,26.68
2023-08-08T00:09:36.542Z,26.66
2023-08-08T00:12:16.072Z,26.64
2023-08-08T00:14:49.691Z,26.61
2023-08-08T00:17:25.451Z,26.59
2023-08-08T00:19:58.832Z,26.59
2023-08-08T00:22:32.350Z,26.58
2023-08-08T00:25:07.116Z,26.57
2023-08-08T00:27:45.500Z,26.54
2023-08-08T00:30:19.201Z,26.51
2023-08-08T00:32:52.781Z,26.48
2023-08-08T00:35:28.324Z,26.46
2023-08-08T00:38:02.148Z,26.43
2023-08-08T00:40:35.869Z,26.43
2023-08-08T00:43:09.513Z,26.42
2023-08-08T00:45:45.723Z,26.41
2023-08-08T00:48:19.702Z,26.40
2023-08-08T00:50:53.551Z,26.38
2023-08-08T00:53:29.213Z,26.36
2023-08-08T00:56:03.256Z,26.34
2023-08-08T00:58:37.110Z,26.33
2023-08-08T01:01:12.082Z,26.33
2023-08-08T01:03:48.126Z,26.31
2023-08-08T01:06:29.691Z,26.29
2023-08-08T01:09:11.672Z,26.29
2023-08-08T01:11:50.548Z,26.28
2023-08-08T01:14:26.814Z,26.28
2023-08-08T01:17:02.001Z,26.26
2023-08-08T01:19:37.826Z,26.25
2023-08-08T01:22:17.262Z,26.23
2023-08-08T01:24:51.028Z,26.22
2023-08-08T01:27:25.222Z,26.20
2023-08-08T01:29:59.671Z,26.17
2023-08-08T01:32:33.719Z,26.16
2023-08-08T01:35:10.770Z,26.14
2023-08-08T01:37:49.672Z,26.13
2023-08-08T01:40:24.060Z,26.13
2023-08-08T01:42:58.980Z,26.11
2023-08-08T01:45:32.563Z,26.10
2023-08-08T01:48:12.478Z,26.11
2023-08-08T01:50:46.049Z,26.11
2023-08-08T01:53:19.760Z,26.11
2023-08-08T01:55:55.429Z,26.08
2023-08-08T01:58:29.013Z,26.06
2023-08-08T02:01:02.698Z,26.03
2023-08-08T02:03:36.207Z,26.02
2023-08-08T02:06:09.727Z,26.01
2023-08-08T02:08:43.665Z,25.99
2023-08-08T02:11:17.347Z,26.02
2023-08-08T02:13:50.943Z,26.05
2023-08-08T02:16:24.662Z,26.08
2023-08-08T02:18:59.282Z,26.10
2023-08-08T02:21:33.994Z,26.15
2023-08-08T02:24:08.007Z,26.20
2023-08-08T02:26:41.604Z,26.25
2023-08-08T02:29:15.187Z,26.29
2023-08-08T02:31:48.944Z,26.32
2023-08-08T02:34:23.068Z,26.36
2023-08-08T02:36:56.914Z,26.41
2023-08-08T02:39:30.395Z,26.44
2023-08-08T02:42:04.003Z,26.49
2023-08-08T02:44:37.874Z,26.57
2023-08-08T02:47:12.150Z,26.75
2023-08-08T02:49:45.756Z,27.06
2023-08-08T02:52:19.412Z,27.46
2023-08-08T02:54:53.630Z,27.94
2023-08-08T02:57:27.282Z,28.47
2023-08-08T03:00:01.022Z,29.02
2023-08-08T03:02:34.768Z,29.60
2023-08-08T03:05:11.274Z,30.22
2023-08-08T03:07:44.905Z,30.87
2023-08-08T03:10:18.919Z,31.47
2023-08-08T03:12:52.599Z,32.08
2023-08-08T03:15:26.126Z,32.70
2023-08-08T03:17:59.740Z,33.32
2023-08-08T03:20:33.188Z,33.91
2023-08-08T03:23:07.866Z,34.48
2023-08-08T03:25:41.360Z,35.05
2023-08-08T03:28:15.227Z,35.61
2023-08-08T03:30:48.681Z,36.16
2023-08-08T03:33:22.441Z,36.70
2023-08-08T03:35:56.248Z,37.26
2023-08-08T03:38:29.754Z,37.86
2023-08-08T03:41:03.217Z,38.40
2023-08-08T03:43:37.874Z,38.79
2023-08-08T03:46:13.442Z,39.25
2023-08-08T03:48:46.942Z,39.81
2023-08-08T03:51:20.592Z,40.29
2023-08-08T03:53:54.072Z,40.81
2023-08-08T03:56:29.049Z,41.38
2023-08-08T03:59:03.263Z,41.88
2023-08-08T04:01:38.300Z,42.36
2023-08-08T04:04:11.901Z,42.85
2023-08-08T04:06:46.064Z,43.21
2023-08-08T04:09:19.821Z,43.56
2023-08-08T04:11:56.149Z,43.97
2023-08-08T04:14:29.988Z,44.35
2023-08-08T04:17:04.845Z,44.73
2023-08-08T04:19:38.349Z,44.98
2023-08-08T04:22:12.173Z,45.21
2023-08-08T04:24:45.753Z,45.49
2023-08-08T04:27:19.381Z,45.83
2023-08-08T04:29:53.241Z,46.27
2023-08-08T04:32:27.272Z,46.67
2023-08-08T04:35:01.233Z,47.03
2023-08-08T04:37:35.719Z,47.49
2023-08-08T04:40:12.085Z,47.90
2023-08-08T04:42:46.092Z,48.32
2023-08-08T04:45:18.542Z,48.82
2023-08-08T04:47:51.976Z,49.13
2023-08-08T04:50:25.794Z,49.46
2023-08-08T04:52:59.361Z,49.89
2023-08-08T04:55:33.186Z,50.31
2023-08-08T04:58:08.451Z,50.66
2023-08-08T05:00:41.941Z,50.91
2023-08-08T05:03:15.515Z,51.12
2023-08-08T05:05:49.588Z,51.44
2023-08-08T05:08:23.186Z,51.79
2023-08-08T05:10:56.774Z,52.15
2023-08-08T05:13:31.395Z,52.55
2023-08-08T05:16:05.012Z,52.95
2023-08-08T05:18:38.493Z,53.34
2023-08-08T05:21:12.132Z,53.71
2023-08-08T05:23:46.052Z,54.02
2023-08-08T05:26:22.631Z,54.27
2023-08-08T05:28:56.249Z,54.57
2023-08-08T05:31:29.929Z,54.92
2023-08-08T05:34:03.731Z,55.19
2023-08-08T05:36:37.494Z,55.45
2023-08-08T05:39:12.747Z,55.73
2023-08-08T05:41:47.845Z,55.87
2023-08-08T05:44:21.539Z,56.11
2023-08-08T05:46:55.338Z,56.39
2023-08-08T05:49:28.987Z,56.28
2023-08-08T05:52:03.099Z,56.10
2023-08-08T05:54:37.260Z,56.04
2023-08-08T05:57:11.854Z,56.17
2023-08-08T05:59:47.119Z,56.31
2023-08-08T06:02:20.787Z,56.11
2023-08-08T06:04:55.197Z,55.85
2023-08-08T06:07:28.832Z,55.57
2023-08-08T06:10:02.523Z,55.59
2023-08-08T06:12:36.646Z,55.79
2023-08-08T06:15:12.732Z,55.97
2023-08-08T06:17:46.548Z,56.07
2023-08-08T06:20:20.095Z,56.07
2023-08-08T06:22:54.967Z,56.36
2023-08-08T06:25:29.856Z,56.59
2023-08-08T06:28:03.635Z,56.86
2023-08-08T06:30:37.234Z,57.20
2023-08-08T06:33:12.076Z,57.24
2023-08-08T06:35:45.705Z,57.27
2023-08-08T06:38:19.429Z,57.54
2023-08-08T06:40:54.584Z,57.72
2023-08-08T06:43:29.664Z,57.79
2023-08-08T06:46:06.737Z,57.81
2023-08-08T06:48:40.423Z,57.63
2023-08-08T06:51:13.819Z,57.34
2023-08-08T06:53:47.370Z,57.13
2023-08-08T06:56:20.737Z,57.08
2023-08-08T06:58:54.413Z,57.05
2023-08-08T07:01:28.576Z,56.92
2023-08-08T07:04:02.509Z,56.92
2023-08-08T07:06:36.198Z,56.89
2023-08-08T07:09:12.783Z,56.85
2023-08-08T07:11:48.110Z,56.75
2023-08-08T07:14:24.221Z,56.63
2023-08-08T07:16:58.738Z,55.64
2023-08-08T07:19:32.517Z,53.89
2023-08-08T07:22:06.668Z,51.88
2023-08-08T07:24:41.325Z,49.97
2023-08-08T07:27:14.835Z,48.19
2023-08-08T07:29:46.599Z,46.82
2023-08-08T07:32:20.036Z,45.85
2023-08-08T07:34:53.753Z,44.98
2023-08-08T07:37:27.286Z,44.15
2023-08-08T07:40:01.218Z,43.39
2023-08-08T07:42:34.731Z,42.95
2023-08-08T07:45:10.887Z,42.74
2023-08-08T07:47:45.666Z,42.63
2023-08-08T07:50:20.154Z,42.53
2023-08-08T07:52:53.584Z,42.44
2023-08-08T07:55:27.412Z,42.39
2023-08-08T07:58:01.635Z,42.33
2023-08-08T08:00:35.196Z,42.17
2023-08-08T08:03:10.080Z,41.96
2023-08-08T08:05:43.864Z,41.71
2023-08-08T08:08:17.790Z,41.41
2023-08-08T08:10:52.500Z,41.28
2023-08-08T08:13:26.678Z,41.24
2023-08-08T08:16:00.572Z,41.23
2023-08-08T08:18:35.129Z,41.22
2023-08-08T08:21:09.408Z,41.20
2023-08-08T08:23:43.850Z,41.16
2023-08-08T08:26:17.430Z,41.05
2023-08-08T08:28:51.251Z,40.88
2023-08-08T08:31:25.660Z,40.59
2023-08-08T08:34:00.257Z,40.36
2023-08-08T08:36:34.867Z,40.25
2023-08-08T08:39:08.811Z,40.15
2023-08-08T08:41:43.178Z,39.90
2023-08-08T08:44:18.271Z,39.70
2023-08-08T08:46:50.571Z,39.60
2023-08-08T08:49:27.128Z,39.60
2023-08-08T08:52:03.132Z,39.60
2023-08-08T08:54:38.004Z,39.56
2023-08-08T08:57:12.748Z,39.48
2023-08-08T08:59:46.493Z,39.44
2023-08-08T09:02:19.984Z,39.40
2023-08-08T09:04:55.010Z,39.41
2023-08-08T09:07:31.577Z,39.29
2023-08-08T09:10:06.090Z,39.11
2023-08-08T09:12:41.381Z,39.06
2023-08-08T09:15:16.517Z,38.98
2023-08-08T09:17:50.242Z,38.82
2023-08-08T09:20:24.037Z,38.79
2023-08-08T09:22:57.971Z,38.81
2023-08-08T09:25:32.240Z,38.80
2023-08-08T09:28:06.152Z,38.69
2023-08-08T09:30:53.077Z,38.61
2023-08-08T09:33:27.000Z,38.61
2023-08-08T09:36:00.720Z,38.58
2023-08-08T09:38:35.087Z,38.49
2023-08-08T09:41:08.818Z,38.42
2023-08-08T09:43:43.418Z,38.40
2023-08-08T09:46:17.759Z,38.35
2023-08-08T09:48:51.659Z,38.22
2023-08-08T09:51:27.331Z,38.18
2023-08-08T09:54:02.171Z,38.18
2023-08-08T09:56:40.429Z,38.15
2023-08-08T09:59:15.097Z,38.16
2023-08-08T10:01:50.043Z,38.18
2023-08-08T10:04:22.193Z,38.16
2023-08-08T10:06:56.964Z,38.14
2023-08-08T10:09:31.221Z,38.18
2023-08-08T10:12:06.070Z,38.13
2023-08-08T10:14:41.375Z,38.08
2023-08-08T10:17:15.906Z,38.07
2023-08-08T10:19:57.189Z,38.06
2023-08-08T10:22:30.690Z,38.05
2023-08-08T10:25:08.718Z,38.05
2023-08-08T10:27:43.163Z,38.06
2023-08-08T10:30:17.598Z,38.03
2023-08-08T10:32:55.162Z,38.00
2023-08-08T10:35:37.521Z,37.98
2023-08-08T10:38:16.789Z,37.89
2023-08-08T10:40:50.704Z,37.86
2023-08-08T10:43:30.816Z,37.84
2023-08-08T10:46:13.884Z,37.77
2023-08-08T10:48:56.351Z,37.75
2023-08-08T10:51:39.096Z,37.82
2023-08-08T10:54:17.471Z,37.85
2023-08-08T10:56:55.962Z,37.91
2023-08-08T10:59:32.515Z,37.92
2023-08-08T11:02:06.594Z,37.88
2023-08-08T11:04:40.228Z,37.90
2023-08-08T11:07:13.947Z,37.88
2023-08-08T11:09:48.525Z,37.90
2023-08-08T11:12:21.958Z,37.94
2023-08-08T11:14:55.769Z,37.98
2023-08-08T11:17:30.395Z,37.92
2023-08-08T11:20:05.964Z,37.87
2023-08-08T11:22:39.742Z,37.81
2023-08-08T11:25:17.114Z,37.80
2023-08-08T11:27:55.795Z,37.83
2023-08-08T11:30:34.250Z,37.85
2023-08-08T11:35:50.849Z,37.99
2023-08-08T11:38:24.948Z,38.03
2023-08-08T11:41:01.173Z,38.04
2023-08-08T11:43:34.890Z,38.09
2023-08-08T11:46:08.906Z,38.14
2023-08-08T11:48:42.775Z,38.16
2023-08-08T11:51:19.683Z,38.17
2023-08-08T11:53:57.387Z,38.15
2023-08-08T11:56:32.396Z,38.19
2023-08-08T11:59:08.502Z,38.22
2023-08-08T12:01:44.205Z,38.23
2023-08-08T12:04:19.534Z,38.22
2023-08-08T12:06:53.694Z,38.24
2023-08-08T12:09:29.768Z,38.30
2023-08-08T12:12:09.550Z,38.25
2023-08-08T12:14:51.670Z,38.27
2023-08-08T12:17:38.004Z,38.25
2023-08-08T12:20:14.115Z,38.25
2023-08-08T12:22:49.297Z,38.24
2023-08-08T12:25:24.010Z,38.19
2023-08-08T12:28:03.439Z,38.14
2023-08-08T12:30:38.207Z,38.13
2023-08-08T12:33:12.997Z,38.16
2023-08-08T12:35:46.860Z,38.19
2023-08-08T12:38:20.648Z,38.21
2023-08-08T12:40:54.414Z,38.22
2023-08-08T12:43:28.949Z,38.26
2023-08-08T12:46:02.875Z,38.34
2023-08-08T12:48:37.068Z,38.39
2023-08-08T12:51:13.673Z,38.43
2023-08-08T12:53:47.954Z,38.47
2023-08-08T12:56:21.895Z,38.48
2023-08-08T12:58:56.028Z,38.53
2023-08-08T13:01:29.712Z,38.56
2023-08-08T13:04:19.012Z,38.57
2023-08-08T13:06:59.881Z,38.53
2023-08-08T13:09:34.040Z,38.54
2023-08-08T13:12:09.049Z,38.56
2023-08-08T13:14:43.783Z,38.57
2023-08-08T13:17:25.380Z,38.57
2023-08-08T13:19:59.015Z,38.56
2023-08-08T13:22:32.872Z,38.56
2023-08-08T13:25:07.479Z,38.60
2023-08-08T13:27:41.038Z,38.60
2023-08-08T13:30:17.175Z,38.61
2023-08-08T13:32:51.599Z,38.55
2023-08-08T13:35:25.750Z,38.56
2023-08-08T13:37:59.493Z,38.54
2023-08-08T13:40:33.035Z,38.52
2023-08-08T13:43:07.043Z,38.57
2023-08-08T13:45:41.073Z,38.64
2023-08-08T13:48:14.764Z,38.68
2023-08-08T13:50:49.114Z,38.72
2023-08-08T13:53:22.626Z,38.75
2023-08-08T13:55:56.231Z,38.78
2023-08-08T13:58:30.045Z,38.77
2023-08-08T14:01:04.717Z,38.75
2023-08-08T14:03:38.633Z,38.70
2023-08-08T14:06:12.947Z,38.69
2023-08-08T14:08:47.442Z,38.68
2023-08-08T14:11:21.170Z,38.67
2023-08-08T14:13:54.776Z,38.63
2023-08-08T14:16:28.439Z,38.64
2023-08-08T14:19:01.860Z,38.60
2023-08-08T14:21:36.360Z,38.57
2023-08-08T14:24:11.583Z,38.54
2023-08-08T14:26:43.222Z,38.51
2023-08-08T14:29:16.956Z,38.46
2023-08-08T14:31:59.955Z,38.38
2023-08-08T14:34:39.068Z,38.30
2023-08-08T14:37:13.516Z,38.20
2023-08-08T14:39:47.189Z,38.07
2023-08-08T14:42:21.810Z,37.98
2023-08-08T14:44:56.221Z,37.89
2023-08-08T14:47:30.382Z,37.83
2023-08-08T14:50:04.128Z,37.70
2023-08-08T14:52:38.385Z,37.50
2023-08-08T14:55:12.686Z,37.29
2023-08-08T14:57:46.690Z,37.11
2023-08-08T15:00:21.641Z,37.01
2023-08-08T15:02:55.618Z,36.96
2023-08-08T15:05:29.969Z,36.92
2023-08-08T15:08:03.546Z,36.86
2023-08-08T15:10:37.008Z,36.77
2023-08-08T15:13:10.753Z,36.70
2023-08-08T15:15:44.719Z,36.60
2023-08-08T15:18:18.967Z,36.54
2023-08-08T15:20:53.416Z,36.45
2023-08-08T15:23:28.247Z,36.38
2023-08-08T15:26:03.187Z,36.30
2023-08-08T15:28:36.858Z,36.24
2023-08-08T15:31:10.347Z,36.16
2023-08-08T15:33:44.323Z,36.07
2023-08-08T15:36:17.872Z,35.97
2023-08-08T15:38:51.398Z,35.88
2023-08-08T15:41:25.050Z,35.79
2023-08-08T15:43:59.089Z,35.70
2023-08-08T15:46:33.601Z,35.62
2023-08-08T15:49:11.168Z,35.53
2023-08-08T15:51:46.704Z,35.43
2023-08-08T15:54:24.040Z,35.33
2023-08-08T15:56:58.101Z,35.25
2023-08-08T15:59:32.687Z,35.16
2023-08-08T16:02:06.614Z,35.07
2023-08-08T16:04:40.749Z,35.00
2023-08-08T16:07:19.948Z,34.92
2023-08-08T16:09:54.654Z,34.84
2023-08-08T16:12:28.514Z,34.76
2023-08-08T16:15:02.151Z,34.68
2023-08-08T16:17:36.185Z,34.58
2023-08-08T16:20:13.714Z,34.49
2023-08-08T16:22:47.947Z,34.39
2023-08-08T16:25:22.517Z,34.31
2023-08-08T16:27:55.979Z,34.25
2023-08-08T16:30:29.895Z,34.18
2023-08-08T16:33:04.511Z,34.12
2023-08-08T16:35:38.443Z,34.06
2023-08-08T16:38:13.694Z,34.01
2023-08-08T16:40:47.467Z,33.95
2023-08-08T16:43:21.086Z,33.90
2023-08-08T16:45:54.828Z,33.84
2023-08-08T16:48:30.418Z,33.78
2023-08-08T16:51:04.608Z,33.71
2023-08-08T16:53:38.027Z,33.63
2023-08-08T16:56:11.795Z,33.57
2023-08-08T16:58:45.507Z,33.51
2023-08-08T17:01:20.529Z,33.45
2023-08-08T17:03:54.323Z,33.39
2023-08-08T17:06:28.507Z,33.33
2023-08-08T17:09:02.118Z,33.27
2023-08-08T17:11:35.791Z,33.21
2023-08-08T17:14:10.614Z,33.17
2023-08-08T17:16:46.690Z,33.13
2023-08-08T17:19:21.038Z,33.08
2023-08-08T17:21:54.914Z,33.03
2023-08-08T17:24:34.565Z,32.99
2023-08-08T17:27:12.939Z,32.95
2023-08-08T17:29:46.615Z,32.90
2023-08-08T17:32:20.736Z,32.86
2023-08-08T17:34:57.854Z,32.82
2023-08-08T17:37:38.232Z,32.78
2023-08-08T17:40:15.704Z,32.75
2023-08-08T17:42:53.009Z,32.73
2023-08-08T17:45:31.353Z,32.70
2023-08-08T17:48:08.214Z,32.68
2023-08-08T17:50:43.967Z,32.65
2023-08-08T17:53:17.738Z,32.63
2023-08-08T17:55:51.490Z,32.58
2023-08-08T17:58:28.084Z,32.57
2023-08-08T18:01:01.816Z,32.54
2023-08-08T18:03:38.382Z,32.52
2023-08-08T18:06:12.293Z,32.50
2023-08-08T18:08:46.244Z,32.47
2023-08-08T18:11:24.859Z,32.45
2023-08-08T18:13:58.797Z,32.42
2023-08-08T18:16:32.657Z,32.39
2023-08-08T18:19:09.902Z,32.36
2023-08-08T18:21:46.587Z,32.32
2023-08-08T18:24:20.468Z,32.28
2023-08-08T18:26:54.668Z,32.25
2023-08-08T18:29:28.664Z,32.21
2023-08-08T18:32:04.297Z,32.18
2023-08-08T18:34:40.971Z,32.14
2023-08-08T18:37:14.727Z,32.10
2023-08-08T18:39:49.259Z,32.06
2023-08-08T18:42:25.393Z,32.02
2023-08-08T18:44:59.598Z,31.98
2023-08-08T18:47:33.340Z,31.94
2023-08-08T18:50:09.298Z,31.90
2023-08-08T18:52:41.528Z,31.86
2023-08-08T18:55:15.323Z,31.82
2023-08-08T18:57:49.392Z,31.77
2023-08-08T19:00:23.227Z,31.74
2023-08-08T19:02:57.590Z,31.70
2023-08-08T19:05:35.699Z,31.66
2023-08-08T19:08:09.744Z,31.63
2023-08-08T19:10:43.391Z,31.61
2023-08-08T19:13:17.107Z,31.57
2023-08-08T19:15:53.482Z,31.55
2023-08-08T19:18:28.258Z,31.53
2023-08-08T19:21:02.230Z,31.50
2023-08-08T19:23:36.087Z,31.46
2023-08-08T19:26:10.034Z,31.44
2023-08-08T19:28:43.723Z,31.40
2023-08-08T19:31:18.023Z,31.36
2023-08-08T19:34:04.260Z,31.32
2023-08-08T19:36:44.563Z,31.28
2023-08-08T19:39:18.444Z,31.24
2023-08-08T19:41:55.582Z,31.22
2023-08-08T19:44:30.090Z,31.19
2023-08-08T19:47:07.132Z,31.16
2023-08-08T19:49:41.021Z,31.14
2023-08-08T19:52:14.886Z,31.11
2023-08-08T19:54:48.555Z,31.09
2023-08-08T19:57:22.354Z,31.05
2023-08-08T19:59:56.151Z,31.01
2023-08-08T20:02:30.197Z,30.98
2023-08-08T20:05:04.091Z,30.95
2023-08-08T20:07:38.994Z,30.92
2023-08-08T20:10:17.349Z,30.88
2023-08-08T20:12:53.958Z,30.85
2023-08-08T20:15:30.180Z,30.83
2023-08-08T20:18:03.946Z,30.80
2023-08-08T20:20:40.452Z,30.77
2023-08-08T20:23:14.381Z,30.73
2023-08-08T20:25:48.227Z,30.70
2023-08-08T20:28:22.055Z,30.65
2023-08-08T20:30:55.977Z,30.60
2023-08-08T20:33:29.676Z,30.55
2023-08-08T20:36:05.473Z,30.52
2023-08-08T20:38:39.093Z,30.48
2023-08-08T20:41:13.290Z,30.45
2023-08-08T20:43:48.731Z,30.41
2023-08-08T20:46:22.389Z,30.37
2023-08-08T20:48:58.503Z,30.32
2023-08-08T20:51:32.334Z,30.29
2023-08-08T20:54:09.088Z,30.25
2023-08-08T20:56:44.146Z,30.21
2023-08-08T20:59:17.698Z,30.17
2023-08-08T21:01:51.376Z,30.12
2023-08-08T21:04:27.918Z,30.09
2023-08-08T21:07:02.259Z,30.05
2023-08-08T21:09:38.313Z,30.01
2023-08-08T21:12:15.458Z,29.97
2023-08-08T21:14:49.408Z,29.93
2023-08-08T21:17:23.325Z,29.90
2023-08-08T21:19:58.155Z,29.87
2023-08-08T21:22:32.014Z,29.83
2023-08-08T21:25:08.952Z,29.79
2023-08-08T21:27:42.982Z,29.76
2023-08-08T21:30:16.982Z,29.73
2023-08-08T21:32:50.612Z,29.71
2023-08-08T21:35:24.389Z,29.67
2023-08-08T21:37:58.077Z,29.64
2023-08-08T21:40:31.727Z,29.61
2023-08-08T21:43:05.407Z,29.57
2023-08-08T21:45:40.247Z,29.54
2023-08-08T21:48:13.907Z,29.51
2023-08-08T21:50:47.473Z,29.48
2023-08-08T21:53:21.365Z,29.44
2023-08-08T21:55:55.318Z,29.41
2023-08-08T21:58:29.064Z,29.38
2023-08-08T22:01:02.709Z,29.35
2023-08-08T22:03:36.360Z,29.32
2023-08-08T22:06:10.123Z,29.28
2023-08-08T22:08:43.645Z,29.24
2023-08-08T22:11:18.134Z,29.21
2023-08-08T22:13:51.658Z,29.17
2023-08-08T22:16:25.425Z,29.14
2023-08-08T22:18:59.228Z,29.10
2023-08-08T22:21:33.316Z,29.08
2023-08-08T22:24:07.841Z,29.04
2023-08-08T22:26:41.685Z,29.02
2023-08-08T22:29:15.771Z,28.98
2023-08-08T22:31:49.510Z,28.96
2023-08-08T22:34:23.163Z,28.93
2023-08-08T22:36:56.727Z,28.89
2023-08-08T22:39:30.921Z,28.87
2023-08-08T22:42:04.502Z,28.84
2023-08-08T22:44:38.136Z,28.81
2023-08-08T22:47:11.654Z,28.78
2023-08-08T22:49:45.721Z,28.75
2023-08-08T22:52:19.647Z,28.72
2023-08-08T22:54:58.363Z,28.69
2023-08-08T22:57:32.176Z,28.67
2023-08-08T23:00:08.175Z,28.64
2023-08-08T23:02:40.105Z,28.63
2023-08-08T23:05:14.483Z,28.60
2023-08-08T23:07:48.440Z,28.59
2023-08-08T23:10:22.487Z,28.57
2023-08-08T23:12:56.114Z,28.55
2023-08-08T23:15:29.739Z,28.53
2023-08-08T23:18:04.286Z,28.51
2023-08-08T23:20:37.913Z,28.50
2023-08-08T23:23:11.923Z,28.48
2023-08-08T23:25:46.009Z,28.46
2023-08-08T23:28:19.811Z,28.45
2023-08-08T23:30:53.743Z,28.44
2023-08-08T23:33:27.401Z,28.41
2023-08-08T23:36:01.523Z,28.38
2023-08-08T23:38:35.470Z,28.36
2023-08-08T23:41:09.488Z,28.34
2023-08-08T23:43:44.439Z,28.32
2023-08-08T23:46:18.493Z,28.30
2023-08-08T23:48:53.268Z,28.28
2023-08-08T23:51:27.758Z,28.26
2023-08-08T23:54:01.912Z,28.24
2023-08-08T23:56:36.835Z,28.22
2023-08-08T23:59:10.895Z,28.19
